createdAt,value
2022-11-07T00:01:21.112Z,94845.66
2022-11-07T00:03:48.701Z,94842.56
2022-11-07T00:06:18.457Z,94849.72
2022-11-07T00:08:45.902Z,94849.31
2022-11-07T00:11:12.972Z,94857.97
2022-11-07T00:13:40.017Z,94862.84
2022-11-07T00:16:09.904Z,94856.66
2022-11-07T00:18:37.395Z,94865.00
2022-11-07T00:21:06.288Z,94859.69
2022-11-07T00:23:33.439Z,94860.19
2022-11-07T00:26:05.144Z,94859.69
2022-11-07T00:28:42.720Z,94850.09
2022-11-07T00:31:11.670Z,94850.69
2022-11-07T00:33:38.793Z,94858.47
2022-11-07T00:36:06.348Z,94861.06
2022-11-07T00:38:33.359Z,94865.84
2022-11-07T00:41:02.555Z,94856.69
2022-11-07T00:43:30.497Z,94863.06
2022-11-07T00:45:58.172Z,94857.13
2022-11-07T00:48:25.235Z,94851.75
2022-11-07T00:50:52.244Z,94855.44
2022-11-07T00:53:19.293Z,94854.34
2022-11-07T00:55:46.649Z,94843.66
2022-11-07T00:58:14.598Z,94850.50
2022-11-07T01:00:42.394Z,94852.59
2022-11-07T01:03:27.924Z,94841.88
2022-11-07T01:06:03.149Z,94850.84
2022-11-07T01:08:30.781Z,94846.88
2022-11-07T01:10:59.049Z,94843.06
2022-11-07T01:13:26.872Z,94839.28
2022-11-07T01:15:54.172Z,94834.41
2022-11-07T01:18:21.248Z,94826.34
2022-11-07T01:20:49.907Z,94839.19
2022-11-07T01:23:18.287Z,94836.50
2022-11-07T01:25:45.922Z,94835.50
2022-11-07T01:28:12.922Z,94833.13
2022-11-07T01:30:44.557Z,94834.91
2022-11-07T01:33:12.737Z,94840.22
2022-11-07T01:35:40.849Z,94842.91
2022-11-07T01:38:08.605Z,94849.09
2022-11-07T01:41:01.580Z,94844.13
2022-11-07T01:43:46.722Z,94831.63
2022-11-07T01:46:14.465Z,94831.72
2022-11-07T01:48:44.971Z,94843.88
2022-11-07T01:51:13.247Z,94842.78
2022-11-07T01:53:41.649Z,94843.06
2022-11-07T01:56:14.523Z,94847.66
2022-11-07T01:58:43.369Z,94839.09
2022-11-07T02:01:10.966Z,94838.28
2022-11-07T02:03:38.746Z,94842.28
2022-11-07T02:06:11.029Z,94840.97
2022-11-07T02:08:40.255Z,94841.06
2022-11-07T02:11:07.645Z,94841.88
2022-11-07T02:13:34.669Z,94840.56
2022-11-07T02:16:05.681Z,94836.19
2022-11-07T02:18:36.429Z,94846.38
2022-11-07T02:21:18.734Z,94842.16
2022-11-07T02:24:01.515Z,94844.69
2022-11-07T02:26:29.320Z,94850.00
2022-11-07T02:28:57.604Z,94840.22
2022-11-07T02:31:24.896Z,94838.09
2022-11-07T02:33:52.089Z,94841.19
2022-11-07T02:36:23.622Z,94849.25
2022-11-07T02:38:57.664Z,94849.75
2022-11-07T02:41:33.607Z,94855.03
2022-11-07T02:44:09.057Z,94842.81
2022-11-07T02:46:36.878Z,94842.16
2022-11-07T02:49:04.166Z,94839.59
2022-11-07T02:51:31.209Z,94848.63
2022-11-07T02:53:58.576Z,94844.69
2022-11-07T02:56:25.903Z,94836.50
2022-11-07T02:58:52.986Z,94831.06
2022-11-07T03:01:20.536Z,94832.56
2022-11-07T03:03:49.502Z,94835.66
2022-11-07T03:06:19.987Z,94832.59
2022-11-07T03:08:47.317Z,94839.28
2022-11-07T03:11:14.699Z,94841.97
2022-11-07T03:13:41.668Z,94846.75
2022-11-07T03:16:11.258Z,94843.78
2022-11-07T03:18:38.538Z,94852.25
2022-11-07T03:21:06.333Z,94853.84
2022-11-07T03:23:34.997Z,94856.66
2022-11-07T03:26:02.586Z,94852.88
2022-11-07T03:28:29.675Z,94860.44
2022-11-07T03:31:00.975Z,94870.81
2022-11-07T03:33:28.651Z,94871.72
2022-11-07T03:35:55.650Z,94875.59
2022-11-07T03:38:22.758Z,94871.88
2022-11-07T03:40:49.926Z,94874.06
2022-11-07T03:43:17.289Z,94881.06
2022-11-07T03:45:44.567Z,94884.25
2022-11-07T03:48:11.638Z,94888.03
2022-11-07T03:50:38.771Z,94887.22
2022-11-07T03:53:05.804Z,94887.03
2022-11-07T03:55:32.849Z,94889.72
2022-11-07T03:57:59.847Z,94882.66
2022-11-07T04:00:26.868Z,94892.31
2022-11-07T04:02:54.057Z,94888.03
2022-11-07T04:05:21.140Z,94884.84
2022-11-07T04:07:48.214Z,94893.22
2022-11-07T04:10:15.393Z,94891.41
2022-11-07T04:13:00.766Z,94889.31
2022-11-07T04:15:46.179Z,94887.59
2022-11-07T04:18:13.640Z,94887.38
2022-11-07T04:20:40.620Z,94886.88
2022-11-07T04:23:07.495Z,94900.34
2022-11-07T04:25:52.831Z,94900.34
2022-11-07T04:28:20.012Z,94898.53
2022-11-07T04:30:47.044Z,94898.31
2022-11-07T04:33:14.456Z,94899.47
2022-11-07T04:35:41.659Z,94900.97
2022-11-07T04:38:08.695Z,94903.44
2022-11-07T04:40:36.045Z,94906.13
2022-11-07T04:43:09.268Z,94909.91
2022-11-07T04:45:37.919Z,94906.44
2022-11-07T04:48:05.842Z,94912.59
2022-11-07T04:50:32.947Z,94900.00
2022-11-07T04:53:00.108Z,94917.22
2022-11-07T04:55:30.753Z,94920.16
2022-11-07T04:57:58.176Z,94927.94
2022-11-07T05:00:25.689Z,94916.59
2022-11-07T05:02:53.033Z,94924.88
2022-11-07T05:05:20.452Z,94915.00
2022-11-07T05:07:47.869Z,94915.78
2022-11-07T05:10:19.401Z,94921.38
2022-11-07T05:12:46.486Z,94917.81
2022-11-07T05:15:13.692Z,94932.00
2022-11-07T05:17:42.232Z,94928.78
2022-11-07T05:20:25.852Z,94931.75
2022-11-07T05:23:11.518Z,94934.97
2022-11-07T05:25:49.995Z,94933.81
2022-11-07T05:28:25.688Z,94937.00
2022-11-07T05:31:01.872Z,94942.59
2022-11-07T05:33:29.295Z,94950.88
2022-11-07T05:35:56.262Z,94948.88
2022-11-07T05:38:23.327Z,94952.91
2022-11-07T05:40:50.307Z,94955.22
2022-11-07T05:43:17.878Z,94955.63
2022-11-07T05:45:45.310Z,94962.25
2022-11-07T05:48:13.770Z,94961.06
2022-11-07T05:50:41.325Z,94963.88
2022-11-07T05:53:08.558Z,94962.09
2022-11-07T05:55:35.567Z,94964.91
2022-11-07T05:58:08.792Z,94970.13
2022-11-07T06:00:35.769Z,94975.41
2022-11-07T06:03:05.897Z,94973.63
2022-11-07T06:05:33.097Z,94981.13
2022-11-07T06:08:00.196Z,94976.72
2022-11-07T06:10:27.314Z,94978.81
2022-11-07T06:13:02.780Z,94981.41
2022-11-07T06:15:33.623Z,94978.63
2022-11-07T06:18:02.103Z,94980.91
2022-11-07T06:20:30.120Z,94988.53
2022-11-07T06:23:04.494Z,94982.03
2022-11-07T06:25:32.496Z,94984.72
2022-11-07T06:28:07.850Z,94988.91
2022-11-07T06:30:36.357Z,94990.69
2022-11-07T06:33:05.673Z,94995.56
2022-11-07T06:35:33.178Z,95002.34
2022-11-07T06:38:05.238Z,94995.97
2022-11-07T06:40:33.308Z,95005.00
2022-11-07T06:43:12.729Z,95010.38
2022-11-07T06:45:40.820Z,95012.22
2022-11-07T06:48:08.935Z,95006.84
2022-11-07T06:50:36.145Z,95009.16
2022-11-07T06:53:05.062Z,95016.03
2022-11-07T06:55:35.035Z,95021.31
2022-11-07T06:58:02.905Z,95018.34
2022-11-07T07:00:35.390Z,95025.56
2022-11-07T07:03:02.950Z,95017.94
2022-11-07T07:05:30.054Z,95026.53
2022-11-07T07:07:57.413Z,95023.72
2022-11-07T07:10:25.597Z,95027.88
2022-11-07T07:12:54.164Z,95022.19
2022-11-07T07:15:21.481Z,95029.69
2022-11-07T07:17:49.376Z,95023.34
2022-11-07T07:20:16.709Z,95025.09
2022-11-07T07:22:50.410Z,95029.88
2022-11-07T07:25:29.324Z,95029.72
2022-11-07T07:27:56.781Z,95029.63
2022-11-07T07:30:24.164Z,95017.53
2022-11-07T07:32:51.232Z,95027.09
2022-11-07T07:35:18.575Z,95029.66
2022-11-07T07:37:50.202Z,95017.56
2022-11-07T07:40:17.898Z,95014.06
2022-11-07T07:42:45.439Z,95022.19
2022-11-07T07:45:14.295Z,95025.69
2022-11-07T07:47:42.167Z,95023.78
2022-11-07T07:50:11.668Z,95023.47
2022-11-07T07:52:39.170Z,95024.16
2022-11-07T07:55:09.351Z,95027.34
2022-11-07T07:57:42.473Z,95023.88
2022-11-07T08:00:12.023Z,95028.97
2022-11-07T08:02:40.090Z,95036.13
2022-11-07T08:05:07.703Z,95029.47
2022-11-07T08:07:35.082Z,95033.59
2022-11-07T08:10:14.617Z,95023.56
2022-11-07T08:12:49.521Z,95034.53
2022-11-07T08:15:18.698Z,95028.16
2022-11-07T08:17:46.711Z,95034.38
2022-11-07T08:20:16.405Z,95037.72
2022-11-07T08:22:43.464Z,95032.00
2022-11-07T08:25:12.194Z,95031.97
2022-11-07T08:27:39.467Z,95021.13
2022-11-07T08:30:12.626Z,95021.69
2022-11-07T08:32:42.979Z,95025.88
2022-11-07T08:35:11.502Z,95030.34
2022-11-07T08:37:39.065Z,95032.53
2022-11-07T08:40:08.844Z,95030.59
2022-11-07T08:42:36.273Z,95032.47
2022-11-07T08:45:03.755Z,95040.81
2022-11-07T08:47:30.962Z,95032.47
2022-11-07T08:49:59.185Z,95039.63
2022-11-07T08:52:28.258Z,95044.66
2022-11-07T08:54:55.638Z,95037.09
2022-11-07T08:57:22.845Z,95041.00
2022-11-07T08:59:49.844Z,95038.47
2022-11-07T09:05:05.121Z,95041.25
2022-11-07T09:07:32.280Z,95041.97
2022-11-07T09:09:59.267Z,95038.88
2022-11-07T09:12:26.533Z,95042.06
2022-11-07T09:14:53.583Z,95043.56
2022-11-07T09:17:20.635Z,95036.78
2022-11-07T09:19:47.588Z,95033.75
2022-11-07T09:22:15.417Z,95040.97
2022-11-07T09:24:42.626Z,95034.63
2022-11-07T09:27:09.630Z,95034.16
2022-11-07T09:29:36.774Z,95038.72
2022-11-07T09:32:23.413Z,95040.31
2022-11-07T09:34:58.212Z,95034.63
2022-11-07T09:37:26.594Z,95021.44
2022-11-07T09:39:53.789Z,95020.16
2022-11-07T09:43:01.994Z,95015.38
2022-11-07T09:45:32.203Z,95018.25
2022-11-07T09:48:07.009Z,95016.03
2022-11-07T09:50:43.410Z,95026.47
2022-11-07T09:53:25.476Z,95018.25
2022-11-07T09:56:07.052Z,95023.06
2022-11-07T09:58:38.281Z,95008.25
2022-11-07T10:01:26.747Z,95013.94
2022-11-07T10:04:23.129Z,95012.84
2022-11-07T10:07:06.139Z,95011.38
2022-11-07T10:10:17.825Z,95003.91
2022-11-07T10:13:04.368Z,94999.25
2022-11-07T10:15:54.438Z,95013.34
2022-11-07T10:18:38.986Z,95007.72
2022-11-07T10:21:44.862Z,95000.19
2022-11-07T10:25:00.022Z,95003.38
2022-11-07T10:27:27.221Z,94997.16
2022-11-07T10:29:56.576Z,94988.22
2022-11-07T10:33:13.078Z,94983.91
2022-11-07T10:35:48.229Z,94975.28
2022-11-07T10:38:19.951Z,94973.97
2022-11-07T10:40:47.994Z,94962.81
2022-11-07T10:43:30.130Z,94960.66
2022-11-07T10:45:58.351Z,94964.88
2022-11-07T10:48:26.012Z,94964.16
2022-11-07T10:50:54.917Z,94963.19
2022-11-07T10:53:23.734Z,94967.28
2022-11-07T10:55:52.264Z,94965.16
2022-11-07T10:58:27.359Z,94956.03
2022-11-07T11:01:09.842Z,94958.25
2022-11-07T11:03:50.827Z,94958.16
2022-11-07T11:06:24.022Z,94949.56
2022-11-07T11:08:53.215Z,94948.44
2022-11-07T11:11:32.514Z,94947.88
2022-11-07T11:14:16.991Z,94947.63
2022-11-07T11:16:44.347Z,94946.84
2022-11-07T11:19:24.885Z,94939.50
2022-11-07T11:21:58.839Z,94942.59
2022-11-07T11:24:36.916Z,94931.03
2022-11-07T11:27:15.661Z,94924.44
2022-11-07T11:30:02.262Z,94925.94
2022-11-07T11:32:38.249Z,94924.28
2022-11-07T11:35:29.190Z,94917.94
2022-11-07T11:37:59.136Z,94912.78
2022-11-07T11:40:29.050Z,94914.16
2022-11-07T11:43:08.106Z,94915.16
2022-11-07T11:46:11.819Z,94905.00
2022-11-07T11:48:49.748Z,94910.78
2022-11-07T11:51:29.054Z,94902.81
2022-11-07T11:53:57.467Z,94897.13
2022-11-07T11:56:34.389Z,94897.75
2022-11-07T11:59:59.384Z,94890.06
2022-11-07T12:03:20.272Z,94887.38
2022-11-07T12:06:18.889Z,94890.47
2022-11-07T12:09:28.394Z,94887.22
2022-11-07T12:12:25.066Z,94886.00
2022-11-07T12:15:31.912Z,94884.09
2022-11-07T12:18:55.342Z,94887.25
2022-11-07T12:21:50.672Z,94882.06
2022-11-07T12:24:31.642Z,94872.38
2022-11-07T12:30:34.169Z,94876.06
2022-11-07T12:36:49.761Z,94873.34
2022-11-07T12:39:27.792Z,94873.91
2022-11-07T12:42:05.644Z,94862.69
2022-11-07T12:48:16.152Z,94862.22
2022-11-07T13:02:17.595Z,94864.28
2022-11-07T13:04:59.887Z,94858.72
2022-11-07T13:07:39.937Z,94861.38
2022-11-07T13:10:18.842Z,94868.41
2022-11-07T13:13:26.072Z,94860.81
2022-11-07T13:16:14.500Z,94860.88
2022-11-07T13:21:14.137Z,94864.69
2022-11-07T13:23:41.936Z,94869.09
2022-11-07T13:26:26.382Z,94866.38
2022-11-07T13:29:00.687Z,94864.97
2022-11-07T13:31:39.432Z,94862.94
2022-11-07T13:34:11.699Z,94860.03
2022-11-07T13:36:39.644Z,94863.00
2022-11-07T13:39:07.903Z,94863.16
2022-11-07T13:41:35.182Z,94863.66
2022-11-07T13:44:07.441Z,94866.44
2022-11-07T13:46:54.118Z,94867.28
2022-11-07T13:49:46.853Z,94862.63
2022-11-07T13:52:27.078Z,94870.56
2022-11-07T13:55:03.953Z,94874.63
2022-11-07T13:58:01.332Z,94865.13
2022-11-07T14:00:30.566Z,94860.16
2022-11-07T14:02:59.224Z,94863.34
2022-11-07T14:05:29.827Z,94862.63
2022-11-07T14:08:02.448Z,94866.56
2022-11-07T14:10:50.757Z,94872.09
2022-11-07T14:13:51.423Z,94863.41
2022-11-07T14:16:26.698Z,94861.00
2022-11-07T14:19:03.869Z,94863.38
2022-11-07T14:21:35.908Z,94868.81
2022-11-07T14:24:20.296Z,94864.81
2022-11-07T14:27:01.331Z,94871.00
2022-11-07T14:29:29.873Z,94873.66
2022-11-07T14:32:06.997Z,94876.22
2022-11-07T14:34:44.694Z,94878.91
2022-11-07T14:37:15.226Z,94871.41
2022-11-07T14:39:42.849Z,94875.16
2022-11-07T14:42:25.983Z,94871.56
2022-11-07T14:44:58.953Z,94868.72
2022-11-07T14:47:30.865Z,94874.81
2022-11-07T14:49:59.385Z,94879.63
2022-11-07T14:52:42.177Z,94874.03
2022-11-07T14:55:21.062Z,94875.44
2022-11-07T14:57:48.497Z,94881.06
2022-11-07T15:00:18.763Z,94883.22
2022-11-07T15:02:49.423Z,94887.34
2022-11-07T15:05:23.192Z,94889.00
2022-11-07T15:07:50.493Z,94890.03
2022-11-07T15:10:35.831Z,94884.69
2022-11-07T15:13:22.985Z,94888.31
2022-11-07T15:16:14.264Z,94886.75
2022-11-07T15:18:44.839Z,94880.75
2022-11-07T15:21:32.356Z,94887.00
2022-11-07T15:24:02.114Z,94898.22
2022-11-07T15:26:35.024Z,94886.31
2022-11-07T15:29:22.285Z,94889.41
2022-11-07T15:31:49.968Z,94896.69
2022-11-07T15:34:33.787Z,94891.84
2022-11-07T15:37:15.707Z,94908.34
2022-11-07T15:39:42.709Z,94897.69
2022-11-07T15:42:09.967Z,94894.31
2022-11-07T15:44:37.223Z,94903.38
2022-11-07T15:47:05.698Z,94901.78
2022-11-07T15:49:34.328Z,94908.44
2022-11-07T15:52:01.728Z,94902.50
2022-11-07T15:54:28.917Z,94901.84
2022-11-07T15:57:01.561Z,94908.03
2022-11-07T15:59:32.910Z,94912.41
2022-11-07T16:02:01.689Z,94914.13
2022-11-07T16:04:29.692Z,94915.38
2022-11-07T16:06:56.674Z,94919.88
2022-11-07T16:09:26.921Z,94924.53
2022-11-07T16:11:53.970Z,94930.19
2022-11-07T16:14:42.930Z,94930.09
2022-11-07T16:17:12.819Z,94938.00
2022-11-07T16:19:40.357Z,94940.78
2022-11-07T16:22:13.518Z,94954.41
2022-11-07T16:24:40.609Z,94957.50
2022-11-07T16:27:07.831Z,94960.72
2022-11-07T16:29:35.089Z,94959.00
2022-11-07T16:32:02.229Z,94963.22
2022-11-07T16:34:29.276Z,94964.22
2022-11-07T16:36:56.253Z,94970.19
2022-11-07T16:39:23.501Z,94972.88
2022-11-07T16:41:50.784Z,94976.88
2022-11-07T16:44:25.624Z,94964.63
2022-11-07T16:46:55.555Z,94975.34
2022-11-07T16:49:31.647Z,94986.50
2022-11-07T16:51:59.013Z,94983.69
2022-11-07T16:54:26.219Z,94988.81
2022-11-07T16:56:53.587Z,94992.31
2022-11-07T16:59:22.698Z,94986.44
2022-11-07T17:01:51.101Z,94984.03
2022-11-07T17:04:18.332Z,94980.69
2022-11-07T17:06:47.784Z,94978.16
2022-11-07T17:09:17.038Z,94982.56
2022-11-07T17:11:44.512Z,94980.19
2022-11-07T17:14:11.675Z,94973.03
2022-11-07T17:16:42.569Z,94974.31
2022-11-07T17:19:12.176Z,94975.03
2022-11-07T17:21:44.018Z,94970.44
2022-11-07T17:24:10.983Z,94972.31
2022-11-07T17:26:39.089Z,94964.97
2022-11-07T17:29:08.825Z,94968.47
2022-11-07T17:31:36.024Z,94969.91
2022-11-07T17:34:03.012Z,94967.50
2022-11-07T17:36:40.610Z,94978.94
2022-11-07T17:39:11.977Z,94981.81
2022-11-07T17:41:43.646Z,94981.47
2022-11-07T17:44:11.494Z,94988.31
2022-11-07T17:46:44.579Z,94982.91
2022-11-07T17:49:14.667Z,94995.13
2022-11-07T17:51:42.356Z,94988.75
2022-11-07T17:54:14.411Z,94986.19
2022-11-07T17:56:42.253Z,94990.00
2022-11-07T17:59:14.267Z,94982.69
2022-11-07T18:01:41.982Z,94986.19
2022-11-07T18:04:11.035Z,94991.59
2022-11-07T18:06:40.177Z,94989.38
2022-11-07T18:09:09.326Z,94991.59
2022-11-07T18:11:36.680Z,94992.38
2022-11-07T18:14:03.773Z,94982.31
2022-11-07T18:16:33.902Z,94984.53
2022-11-07T18:19:02.538Z,94984.53
2022-11-07T18:21:30.229Z,94972.28
2022-11-07T18:23:57.871Z,94974.66
2022-11-07T18:26:31.175Z,94972.75
2022-11-07T18:29:02.421Z,94968.69
2022-11-07T18:31:29.308Z,94964.69
2022-11-07T18:33:58.156Z,94969.13
2022-11-07T18:36:25.721Z,94964.00
2022-11-07T18:38:52.763Z,94969.19
2022-11-07T18:41:23.932Z,94975.22
2022-11-07T18:43:50.984Z,94975.38
2022-11-07T18:46:19.576Z,94975.38
2022-11-07T18:48:46.787Z,94976.16
2022-11-07T18:51:21.955Z,94969.66
2022-11-07T18:53:52.748Z,94975.84
2022-11-07T18:56:20.593Z,94978.56
2022-11-07T18:58:47.768Z,94977.75
2022-11-07T19:01:28.502Z,94990.78
2022-11-07T19:03:57.179Z,94992.19
2022-11-07T19:06:25.682Z,94991.41
2022-11-07T19:08:53.425Z,94997.59
2022-11-07T19:11:26.784Z,95010.00
2022-11-07T19:13:53.900Z,95018.59
2022-11-07T19:16:24.327Z,95020.81
2022-11-07T19:18:51.821Z,95020.94
2022-11-07T19:21:21.250Z,95021.47
2022-11-07T19:23:54.637Z,95026.09
2022-11-07T19:26:21.835Z,95023.31
2022-11-07T19:28:49.075Z,95029.31
2022-11-07T19:31:16.827Z,95022.31
2022-11-07T19:33:44.423Z,95031.22
2022-11-07T19:36:17.082Z,95040.34
2022-11-07T19:38:45.117Z,95023.31
2022-11-07T19:41:13.632Z,95025.19
2022-11-07T19:43:42.716Z,95025.19
2022-11-07T19:46:16.522Z,95027.91
2022-11-07T19:48:44.288Z,95028.53
2022-11-07T19:51:21.558Z,95024.84
2022-11-07T19:53:56.848Z,95020.53
2022-11-07T19:56:25.713Z,95022.75
2022-11-07T19:58:52.767Z,95029.25
2022-11-07T20:01:24.999Z,95024.34
2022-11-07T20:03:53.375Z,95021.66
2022-11-07T20:06:23.837Z,95023.25
2022-11-07T20:08:51.355Z,95019.44
2022-11-07T20:11:21.671Z,95023.13
2022-11-07T20:13:48.839Z,95027.91
2022-11-07T20:16:16.516Z,95037.31
2022-11-07T20:18:44.043Z,95038.13
2022-11-07T20:21:14.307Z,95037.31
2022-11-07T20:23:42.552Z,95045.47
2022-11-07T20:26:12.300Z,95045.47
2022-11-07T20:28:39.921Z,95045.59
2022-11-07T20:31:14.025Z,95051.13
2022-11-07T20:33:41.424Z,95050.75
2022-11-07T20:36:13.175Z,95054.00
2022-11-07T20:38:41.151Z,95056.41
2022-11-07T20:41:08.482Z,95053.03
2022-11-07T20:43:35.757Z,95057.63
2022-11-07T20:46:11.458Z,95055.25
2022-11-07T20:48:39.237Z,95056.66
2022-11-07T20:51:11.046Z,95053.66
2022-11-07T20:53:39.411Z,95055.06
2022-11-07T20:56:07.114Z,95059.47
2022-11-07T20:58:36.965Z,95062.66
2022-11-07T21:01:05.072Z,95055.44
2022-11-07T21:03:33.666Z,95053.03
2022-11-07T21:06:01.375Z,95051.16
2022-11-07T21:08:30.775Z,95061.53
2022-11-07T21:11:00.134Z,95056.84
2022-11-07T21:13:27.231Z,95056.22
2022-11-07T21:15:54.329Z,95061.81
2022-11-07T21:18:21.623Z,95063.41
2022-11-07T21:20:48.788Z,95055.81
2022-11-07T21:23:16.835Z,95048.72
2022-11-07T21:25:48.154Z,95056.59
2022-11-07T21:28:18.163Z,95057.53
2022-11-07T21:30:58.080Z,95048.94
2022-11-07T21:33:25.267Z,95066.41
2022-11-07T21:35:52.309Z,95064.44
2022-11-07T21:38:19.369Z,95065.41
2022-11-07T21:40:46.651Z,95064.00
2022-11-07T21:43:13.900Z,95060.50
2022-11-07T21:45:41.174Z,95055.59
2022-11-07T21:48:08.555Z,95062.59
2022-11-07T21:50:44.532Z,95062.59
2022-11-07T21:53:12.296Z,95063.22
2022-11-07T21:55:39.524Z,95058.91
2022-11-07T21:58:06.620Z,95071.56
2022-11-07T22:00:36.764Z,95076.75
2022-11-07T22:03:04.693Z,95073.41
2022-11-07T22:05:31.794Z,95073.53
2022-11-07T22:07:58.871Z,95080.22
2022-11-07T22:10:25.982Z,95076.03
2022-11-07T22:12:53.125Z,95072.53
2022-11-07T22:15:20.312Z,95082.13
2022-11-07T22:17:47.387Z,95078.84
2022-11-07T22:20:14.554Z,95080.44
2022-11-07T22:22:41.572Z,95087.44
2022-11-07T22:25:08.772Z,95089.03
2022-11-07T22:27:37.438Z,95075.53
2022-11-07T22:30:05.505Z,95074.44
2022-11-07T22:32:32.610Z,95076.03
2022-11-07T22:35:00.919Z,95082.72
2022-11-07T22:37:30.894Z,95085.63
2022-11-07T22:39:57.882Z,95089.72
2022-11-07T22:42:25.004Z,95091.63
2022-11-07T22:44:52.054Z,95086.81
2022-11-07T22:47:19.085Z,95087.44
2022-11-07T22:49:46.162Z,95084.53
2022-11-07T22:52:13.175Z,95084.53
2022-11-07T22:54:40.806Z,95093.44
2022-11-07T22:57:07.726Z,95087.00
2022-11-07T22:59:34.732Z,95086.53
2022-11-07T23:02:02.036Z,95087.13
2022-11-07T23:04:32.867Z,95085.81
2022-11-07T23:07:00.108Z,95080.25
2022-11-07T23:09:27.270Z,95078.66
2022-11-07T23:11:54.819Z,95077.03
2022-11-07T23:14:25.828Z,95074.25
2022-11-07T23:16:55.457Z,95073.03
2022-11-07T23:19:24.730Z,95077.25
2022-11-07T23:21:56.644Z,95079.94
2022-11-07T23:24:24.047Z,95076.44
2022-11-07T23:26:52.347Z,95079.16
2022-11-07T23:29:21.539Z,95075.66
2022-11-07T23:31:50.033Z,95079.41
2022-11-07T23:34:18.436Z,95078.44
2022-11-07T23:36:45.673Z,95081.03
2022-11-07T23:39:18.733Z,95083.75
2022-11-07T23:41:46.438Z,95084.81
2022-11-07T23:44:14.182Z,95080.22
2022-11-07T23:47:00.323Z,95082.66
2022-11-07T23:49:45.743Z,95083.13
2022-11-07T23:52:12.904Z,95085.22
2022-11-07T23:54:58.571Z,95084.44
2022-11-07T23:57:25.575Z,95080.44
